Date,TemperatureHighF,TemperatureAvgF,TemperatureLowF,DewpointHighF,DewpointAvgF,DewpointLowF,HumidityHigh,HumidityAvg,HumidityLow,PressureMaxIn,PressureMinIn,WindSpeedMaxMPH,WindSpeedAvgMPH,GustSpeedMaxMPH,PrecipitationSumIn
2013-1-1,20,8,-3,15,-6,-18,81,54,47,30.27,30.03,8,1,8,0.00
2013-1-2,21,18,15,18,13,11,88,81,74,30.09,29.97,6,2,8,0.00
2013-1-3,22,15,11,18,6,-1,87,66,55,30.24,30.06,8,2,9,0.00
2013-1-4,33,22,14,18,13,9,82,68,51,30.15,30.00,8,1,8,0.00
2013-1-5,27,19,14,14,11,8,80,70,55,30.12,29.85,6,2,7,0.00
2013-1-6,26,18,12,15,9,4,83,68,50,30.21,30.00,7,2,7,0.00
2013-1-7,38,29,17,23,20,11,79,68,53,30.06,29.94,11,2,11,0.00
2013-1-8,35,28,20,28,22,16,88,78,62,30.03,29.79,8,2,11,0.00
2013-1-9,36,31,27,26,19,16,82,62,49,30.36,29.91,12,2,17,0.00
2013-1-10,41,34,27,34,24,17,98,68,43,30.33,29.76,8,3,10,0.29
2013-1-11,40,37,34,40,36,34,98,98,98,29.76,29.41,7,2,10,0.04
2013-1-12,39,17,6,39,7,-8,98,64,53,30.09,29.44,14,3,14,0.00
2013-1-13,9,6,3,-4,-8,-10,53,53,53,30.24,30.03,8,2,9,0.00
2013-1-14,14,9,5,0,-5,-8,53,52,51,30.36,30.21,7,1,9,0.00
2013-1-15,29,22,10,14,8,-4,78,55,46,30.27,29.85,13,2,13,0.00
2013-1-16,36,26,14,32,15,-6,90,64,41,30.24,29.68,16,3,16,0.00
2013-1-17,19,14,9,6,-3,-10,60,47,41,30.39,30.24,7,2,8,0.00
2013-1-18,42,29,17,29,20,6,82,70,54,30.30,29.76,8,2,9,0.00
2013-1-19,38,24,3,31,14,-11,91,69,45,30.21,29.71,23,4,24,0.00
2013-1-20,9,3,-2,-4,-10,-15,53,53,53,30.39,30.21,13,4,13,0.00
2013-1-21,-2,-6,-11,-15,-19,-23,53,53,53,30.33,30.24,13,4,13,0.00
2013-1-22,5,-3,-12,-9,-16,-24,53,53,53,30.39,30.24,7,2,7,0.00
2013-1-23,16,7,-5,4,-8,-19,63,51,47,30.56,30.15,14,3,14,0.00
2013-1-24,12,2,-6,-4,-13,-21,48,48,48,30.65,30.18,7,2,7,0.00
2013-1-25,19,14,5,7,-1,-10,66,51,46,30.30,29.97,16,3,16,0.00
2013-1-26,23,13,2,7,-3,-13,54,48,45,30.33,30.12,8,2,8,0.00
2013-1-27,33,29,23,31,20,7,97,72,50,30.12,29.82,6,2,7,0.00
2013-1-28,36,32,31,34,32,30,98,96,89,29.94,29.68,7,1,7,0.04
2013-1-29,36,33,28,34,29,20,98,87,73,29.76,29.56,11,2,11,0.00
2013-1-30,28,18,9,21,8,-1,74,65,56,29.76,29.68,13,4,13,0.00
2013-1-31,9,2,-7,-1,-7,-16,65,65,65,30.24,29.76,14,5,14,0.00
2013-2-1,5,-2,-11,-4,-11,-20,65,65,65,30.30,30.06,10,2,10,0.00
2013-2-2,14,7,1,4,-2,-8,65,65,65,30.18,30.00,6,2,6,0.00
2013-2-3,17,11,4,4,0,-5,65,60,49,30.09,29.97,10,2,10,0.00
2013-2-4,18,12,4,2,-3,-8,57,52,45,30.06,29.79,6,2,6,0.00
2013-2-5,33,22,12,24,13,2,92,69,47,30.09,29.68,8,2,8,0.00
2013-2-6,26,17,7,18,9,-2,81,71,64,30.12,29.97,9,2,9,0.00
2013-2-7,27,26,22,23,20,18,91,81,71,30.24,30.00,12,3,12,0.00
2013-2-8,30,23,17,19,12,8,78,64,46,30.39,30.24,6,2,6,0.00
2013-2-9,32,29,24,28,24,-12,92,83,18,30.24,29.97,15,4,15,0.00
2013-2-10,34,31,28,33,29,24,98,93,84,29.97,29.32,11,2,11,0.00
2013-2-11,31,26,19,30,18,11,98,75,57,30.06,29.38,2,2,2,0.00
2013-2-12,39,26,16,22,16,9,79,67,49,30.06,29.82,2,2,2,0.04
2013-2-13,41,30,21,32,22,16,95,75,51,29.82,29.62,2,2,2,0.08
2013-2-14,33,26,16,32,14,0,97,62,42,30.18,29.62,2,0,2,0.00
2013-2-15,22,13,7,3,-2,-8,55,50,43,30.30,30.18,0,0,0,0.00
2013-2-16,24,12,4,6,-3,-11,61,51,45,30.24,30.09,0,0,0,0.00
2013-2-17,33,22,10,18,9,-3,68,57,50,30.12,29.68,0,0,0,0.00
2013-2-18,34,24,10,30,16,-1,87,69,58,29.82,29.56,13,1,13,0.00
2013-2-19,11,6,2,0,-4,-8,61,61,61,30.33,29.82,14,4,14,0.00
2013-2-20,20,9,-2,3,-5,-12,61,52,44,30.44,30.33,6,2,6,0.00
2013-2-21,25,17,6,8,1,-10,58,49,44,30.41,30.12,10,2,10,0.00
2013-2-22,35,24,20,22,16,8,82,71,54,30.12,29.88,11,2,11,0.00
2013-2-23,34,26,21,24,19,16,85,74,58,29.97,29.85,6,1,7,0.05
2013-2-24,42,26,14,23,16,9,81,65,44,30.12,29.97,6,1,6,0.04
2013-2-25,39,30,24,24,20,17,80,67,51,30.12,30.06,4,0,4,0.00
2013-2-26,40,29,20,26,21,15,83,72,54,30.06,29.91,10,2,11,0.00
2013-2-27,40,32,28,25,22,20,77,67,49,30.03,29.88,14,4,14,0.00
2013-2-28,31,28,24,20,17,12,71,62,57,30.24,30.03,9,3,11,0.00
2013-3-1,33,25,18,17,12,7,62,56,47,30.39,30.24,11,3,11,0.00
2013-3-2,34,23,10,15,7,2,75,52,40,30.36,30.18,5,1,5,0.00
2013-3-3,36,28,19,14,8,4,55,44,39,30.18,30.00,9,2,9,0.00
2013-3-4,28,26,24,22,14,6,88,61,40,30.06,29.97,12,3,12,0.00
2013-3-5,34,27,22,24,21,15,91,77,59,30.30,30.00,9,2,9,0.00
2013-3-6,32,24,16,18,14,9,81,66,51,30.41,30.30,7,2,8,0.00
2013-3-7,37,25,13,17,12,7,82,61,42,30.39,30.30,8,2,8,0.04
2013-3-8,37,24,21,22,15,12,80,70,54,30.33,30.30,6,2,8,0.00
2013-3-9,36,36,35,36,35,34,98,98,98,29.88,29.74,5,1,5,0.16
2013-3-10,35,33,30,34,29,24,98,86,77,29.97,29.79,12,4,13,0.04
2013-3-11,31,28,24,24,20,15,80,72,60,29.88,29.76,12,3,12,0.00
2013-3-12,31,26,22,16,12,7,73,56,42,30.18,29.85,13,3,14,0.00
2013-3-13,36,26,14,15,11,6,78,53,37,30.36,30.18,7,2,8,0.00
2013-3-14,42,32,24,26,21,13,88,64,50,30.24,30.03,8,2,8,0.04
2013-3-15,35,32,25,31,27,21,90,82,71,30.03,29.85,7,2,8,0.04
2013-3-16,33,23,14,22,10,-1,87,60,43,30.24,29.91,10,3,10,0.00
2013-3-17,30,20,8,14,3,-6,59,48,41,30.24,29.91,10,3,11,0.00
2013-3-18,30,23,12,27,14,2,92,68,47,29.91,29.65,14,4,15,0.00
2013-3-19,27,16,7,6,0,-8,63,51,40,30.18,29.82,13,5,14,0.00
2013-3-20,24,15,6,4,-4,-11,47,43,40,30.21,30.09,13,4,13,0.05
2013-3-21,29,19,9,8,1,-8,50,46,41,30.12,30.03,5,1,6,0.00
2013-3-22,40,28,13,17,10,1,61,47,36,30.12,30.03,5,1,6,0.00
2013-3-23,42,31,21,19,14,9,62,49,38,30.18,30.09,8,1,8,0.00
2013-3-24,34,31,29,22,18,15,71,59,51,30.12,30.00,11,2,11,0.00
2013-3-25,41,32,23,19,15,12,63,50,39,30.24,30.06,10,3,10,0.00
2013-3-26,32,30,29,18,17,16,62,58,52,30.24,30.24,6,2,6,0.00
2013-4-1,36,27,18,14,10,7,62,49,36,30.27,30.12,14,4,14,0.00
2013-4-2,39,30,20,16,11,8,68,47,31,30.36,30.24,10,2,10,0.00
2013-4-3,48,37,23,26,18,8,60,47,32,30.39,30.09,14,3,14,0.00
2013-4-4,54,44,34,32,24,17,69,45,31,30.18,30.00,12,3,16,0.00
2013-4-5,48,36,27,33,21,12,94,59,33,30.24,29.91,9,3,10,0.04
2013-4-6,54,42,36,38,32,23,92,68,45,29.91,29.56,13,3,13,0.08
2013-4-7,50,41,34,38,32,29,90,70,49,29.97,29.76,6,2,8,0.09
2013-4-8,46,42,39,42,40,36,98,93,82,30.06,29.74,8,2,8,0.66
2013-4-9,44,38,33,36,31,22,97,78,53,30.18,30.00,15,4,15,0.21
2013-4-10,39,36,30,29,23,18,93,60,45,30.21,29.91,14,4,15,0.08
2013-4-11,36,34,31,32,29,20,97,82,55,29.94,29.71,11,3,13,0.08
2013-4-12,38,32,28,31,27,23,96,81,59,29.88,29.71,6,2,7,0.00
2013-4-13,40,33,29,28,24,20,91,69,50,30.00,29.85,8,2,8,0.04
2013-4-14,36,33,30,36,28,20,98,83,63,30.00,29.53,13,3,14,0.00
2013-4-15,39,36,32,35,28,24,98,72,58,30.00,29.59,12,3,12,0.13
2013-4-16,45,38,33,28,25,22,79,60,44,30.36,30.00,11,2,12,0.00
2013-4-17,41,37,34,35,28,24,97,71,59,30.33,29.91,12,2,12,0.12
2013-4-18,34,33,32,34,32,31,98,97,93,29.94,29.56,12,4,14,0.13
2013-4-19,40,34,29,28,21,14,91,60,45,30.00,29.59,11,2,12,0.08
2013-4-20,48,35,22,20,14,10,61,43,29,30.33,30.00,4,1,6,0.25
2013-4-21,48,40,34,46,34,14,98,80,43,30.33,30.03,12,3,14,0.21
2013-4-22,44,37,32,38,33,28,98,86,55,30.21,30.12,13,2,13,0.08
2013-4-23,44,36,30,32,25,16,98,68,41,30.18,30.06,9,2,10,0.37
2013-4-24,54,39,28,33,26,19,86,62,35,30.09,29.91,12,2,14,0.00
2013-4-25,54,43,33,33,27,23,86,56,36,30.21,30.00,9,3,10,0.00
2013-4-26,74,59,45,42,34,24,62,41,26,30.18,30.00,10,3,12,0.00
2013-4-27,78,62,44,44,35,28,58,39,23,30.18,29.97,10,2,11,0.00
2013-4-28,81,66,53,51,44,26,80,49,28,29.97,29.71,12,3,14,0.04
2013-4-29,77,64,49,54,45,33,91,53,29,29.85,29.62,9,2,9,0.05
2013-4-30,71,66,58,58,43,27,78,47,24,30.00,29.47,13,4,14,0.00
2013-5-1,58,41,34,38,33,28,95,75,36,30.44,30.00,10,2,10,0.29
2013-5-2,47,40,35,31,26,21,85,59,41,30.50,30.39,10,3,12,0.04
2013-5-3,38,34,32,33,28,21,91,78,51,30.41,30.15,14,4,14,0.16
2013-5-4,49,40,33,41,36,31,98,88,73,30.21,30.12,9,3,9,0.04
2013-5-5,65,50,38,44,40,35,90,69,45,30.21,30.09,7,2,7,0.00
2013-5-6,78,62,46,48,42,40,83,53,30,30.12,30.06,6,1,6,0.00
2013-5-7,83,67,53,50,42,37,73,44,22,30.09,30.00,8,1,8,0.00
2013-5-8,82,66,57,55,47,42,87,53,29,30.06,30.00,7,1,7,0.17
2013-5-9,59,53,43,55,47,27,90,80,52,30.12,29.97,13,3,13,0.00
2013-5-10,67,53,37,32,27,24,67,40,23,30.12,29.88,6,2,8,0.00
2013-5-11,58,48,41,39,24,18,56,40,29,30.18,29.88,14,4,17,0.04
2013-5-12,59,48,35,24,20,16,50,34,25,30.21,30.09,9,2,11,0.05
2013-5-13,70,56,40,43,30,16,50,37,26,30.12,29.71,14,3,14,0.00
2013-5-14,96,74,54,52,43,31,68,36,15,29.74,29.53,13,3,14,0.00
2013-5-15,79,68,56,45,42,39,56,39,26,29.94,29.74,10,2,12,0.00
2013-5-16,85,74,60,47,39,29,56,30,20,29.97,29.88,11,2,12,0.00
2013-5-17,68,60,56,56,48,28,95,70,23,30.03,29.94,8,3,10,0.20
2013-5-18,78,65,55,66,59,54,98,81,54,30.06,29.85,13,3,13,0.95
2013-5-19,82,69,64,66,63,58,98,83,51,29.85,29.62,12,2,20,2.08
2013-5-20,71,66,60,65,60,55,98,85,62,29.65,29.56,11,3,11,0.00
2013-5-21,62,57,49,60,56,48,98,95,90,29.74,29.59,5,2,7,0.00
2013-5-22,53,50,46,51,48,45,98,94,77,30.00,29.74,10,3,11,0.00
2013-5-23,63,53,44,45,36,31,84,56,33,30.27,30.00,11,3,13,0.00
2013-5-26,59,58,57,45,40,32,61,50,38,30.21,30.06,10,4,11,0.00
2013-5-27,61,58,55,55,50,44,93,76,60,30.06,29.85,10,2,10,1.79
2013-5-28,59,57,54,57,55,52,96,92,90,29.85,29.74,6,1,7,0.00
2013-5-29,75,66,56,71,62,55,98,87,68,29.85,29.71,11,2,11,1.37
2013-5-30,76,69,64,66,63,52,98,83,55,29.74,29.59,10,4,13,0.49
2013-5-31,80,68,62,63,57,48,98,73,40,29.62,29.56,13,3,15,0.50
2013-6-1,71,61,52,61,53,42,88,75,52,29.94,29.62,12,2,12,0.00
2013-6-2,65,57,49,42,38,36,72,52,35,30.09,29.94,9,2,10,0.00
2013-6-3,70,61,50,47,41,37,77,50,33,30.09,29.97,6,1,6,0.00
2013-6-4,64,60,55,54,47,39,90,63,46,30.12,30.00,10,2,12,0.00
2013-6-5,58,56,55,57,55,52,98,97,91,30.09,29.94,8,1,8,0.13
2013-6-6,57,54,50,54,52,50,98,95,87,30.03,29.97,6,2,8,0.00
2013-6-7,64,58,53,55,52,49,98,82,61,30.06,29.94,5,0,5,0.00
2013-6-8,70,64,57,55,52,48,86,65,45,29.97,29.91,8,1,10,0.00
2013-6-9,66,60,57,62,58,52,98,91,66,29.94,29.82,6,2,9,0.50
2013-6-10,72,65,59,65,61,58,98,87,65,29.88,29.82,6,0,6,0.00
2013-6-11,74,67,59,67,63,58,98,88,75,29.94,29.85,5,0,5,0.00
2013-6-12,71,66,61,69,62,49,98,86,54,29.94,29.76,9,2,13,0.37
2013-6-13,74,68,61,51,49,47,61,51,42,30.09,29.94,6,1,6,0.00
2013-6-14,77,70,61,59,54,47,70,57,47,30.09,29.91,10,3,13,0.04
2013-6-15,73,68,65,68,65,58,96,88,70,29.97,29.88,9,1,10,0.33
2013-6-16,82,70,59,63,54,43,98,64,27,30.00,29.88,12,1,16,0.00
2013-6-17,81,70,62,60,54,50,83,60,37,30.03,29.88,8,2,9,0.00
2013-6-18,73,66,57,59,52,47,74,62,46,30.12,30.03,7,2,7,0.00
2013-6-19,82,73,63,60,56,52,73,56,37,30.09,29.97,10,2,10,0.00
2013-6-20,89,79,69,65,60,57,72,54,35,30.03,29.91,10,2,12,0.00
2013-6-21,81,72,65,69,65,60,97,79,50,30.03,29.76,15,2,20,1.54
2013-6-23,80,76,70,71,66,62,93,72,56,29.91,29.79,8,1,10,0.00
2013-6-24,81,73,66,72,66,64,97,82,61,29.94,29.85,8,1,10,0.12
2013-6-25,84,76,66,73,67,63,94,76,55,29.91,29.76,8,2,9,0.00
2013-6-26,85,79,73,76,70,61,96,76,49,29.85,29.74,9,1,9,0.00
2013-6-27,86,78,70,66,57,49,85,53,29,29.85,29.79,11,2,11,0.00
2013-6-28,76,71,66,63,58,52,86,64,44,29.85,29.76,10,3,10,0.00
2013-6-29,73,67,62,64,61,52,98,84,48,29.94,29.76,9,2,9,0.50
2013-7-5,86,83,78,60,58,54,51,42,34,29.88,29.85,10,4,11,0.00
2013-7-6,90,81,72,64,60,58,63,50,39,29.91,29.85,8,3,10,0.00
2013-7-7,91,81,71,70,65,60,92,61,42,29.91,29.85,7,1,8,0.08
2013-7-8,83,74,65,70,67,64,96,80,59,30.00,29.91,7,1,7,0.00
2013-7-9,83,77,70,73,68,62,98,75,58,29.97,29.79,10,2,10,0.50
2013-7-10,79,73,64,62,54,49,77,52,37,30.09,29.94,9,2,10,0.00
2013-7-11,85,75,64,61,54,49,83,52,31,30.12,30.00,7,2,8,0.00
2013-7-12,89,79,68,60,56,51,68,47,33,30.06,29.91,13,4,13,0.00
2013-7-13,78,73,66,72,63,54,98,73,48,30.09,29.94,10,3,12,2.33
2013-7-14,86,77,70,66,63,60,78,63,44,30.18,30.06,8,2,8,0.00
2013-7-15,89,80,70,69,64,59,81,61,38,30.24,30.18,7,1,9,0.00
2013-7-16,93,84,76,72,69,65,85,63,41,30.24,30.18,6,2,6,0.00
2013-7-17,93,83,75,70,68,65,82,62,42,30.24,30.12,6,1,6,0.00
2013-7-18,94,85,78,71,69,63,77,60,41,30.12,29.85,9,2,10,0.00
2013-7-19,82,79,76,58,55,54,53,45,41,29.91,29.85,7,2,8,0.00
2013-7-20,81,73,68,62,57,52,79,59,44,30.00,29.88,7,2,10,0.00
2013-7-21,80,70,60,68,58,44,93,67,47,30.00,29.82,6,1,9,0.08
2013-7-22,85,75,67,72,64,53,92,71,42,29.85,29.71,9,3,10,0.00
2013-7-23,76,68,62,54,51,47,73,54,39,30.03,29.85,8,2,8,0.00
2013-7-24,76,68,62,59,52,46,69,57,44,30.09,29.97,6,1,6,0.00
2013-7-27,60,57,53,53,49,46,84,76,68,30.03,29.94,8,2,11,0.00
2013-7-28,70,61,52,51,48,45,81,65,46,30.09,29.97,6,2,8,0.00
2013-7-29,77,67,56,56,52,48,89,61,39,30.15,30.09,7,1,7,0.00
2013-7-30,70,68,64,64,61,53,88,80,55,30.12,30.06,6,1,6,0.00
2013-7-31,78,69,63,68,59,45,97,72,36,30.09,30.00,9,1,10,0.00
2013-8-1,82,70,59,56,51,48,79,53,33,30.09,29.91,7,1,7,0.00
2013-8-2,77,69,62,57,51,44,76,54,34,30.06,29.91,6,1,9,0.00
2013-8-3,77,67,58,55,48,44,79,53,35,30.21,30.06,8,1,8,0.00
2013-8-4,74,66,57,54,50,45,76,58,42,30.24,30.03,6,1,6,0.00
2013-8-5,76,68,61,67,62,54,98,82,66,30.06,29.82,6,1,8,0.62
2013-8-6,83,69,60,66,61,57,94,76,50,29.88,29.74,7,1,7,0.25
2013-8-7,74,66,61,63,54,45,98,69,37,30.06,29.82,6,2,8,0.00
2013-8-8,78,67,59,59,54,49,83,64,41,30.09,30.00,6,1,6,0.00
2013-8-9,76,68,61,60,53,44,92,62,35,30.12,30.00,7,1,10,0.00
2013-8-10,76,68,60,55,50,47,74,55,40,30.21,30.12,5,1,6,0.00
2013-8-11,77,70,65,64,59,52,81,68,56,30.12,30.03,4,0,6,0.00
2013-8-12,80,71,63,64,55,47,91,61,35,30.12,30.03,6,2,9,0.00
2013-8-13,76,66,58,54,48,41,82,54,33,30.24,30.12,8,1,9,0.00
2013-8-14,77,67,57,55,49,44,80,55,36,30.24,30.12,6,1,6,0.00
2013-8-15,64,62,60,50,49,48,71,64,58,30.15,30.15,0,0,0,0.00
2013-8-16,79,73,67,52,50,48,60,45,37,30.21,30.18,4,1,6,0.00
2013-8-17,85,72,60,58,52,47,82,53,31,30.24,30.12,8,1,10,0.00
2013-8-18,85,73,63,58,54,51,73,52,34,30.18,30.06,8,2,12,0.00
2013-8-19,87,76,68,66,62,56,71,61,46,30.09,29.97,6,2,7,0.00
2013-8-20,92,80,72,71,67,63,78,66,46,29.97,29.91,8,2,9,0.00
2013-8-21,86,80,74,75,70,61,87,73,57,30.06,29.91,8,1,8,0.00
2013-8-22,87,76,67,61,51,45,64,42,28,30.18,30.06,8,2,11,0.00
2013-8-23,88,76,64,65,54,44,70,48,35,30.21,30.09,7,2,10,0.00
2013-8-24,91,80,71,70,67,62,78,65,45,30.15,30.00,13,4,13,0.00
2013-8-25,98,86,79,73,70,68,73,60,40,30.09,30.03,8,3,10,0.00
2013-8-26,98,87,78,74,72,68,83,64,40,30.06,29.91,8,2,8,0.00
2013-8-27,96,85,79,77,73,70,78,68,50,29.97,29.85,7,2,7,0.00
2013-8-28,94,81,72,74,68,58,91,67,34,30.03,29.94,6,1,6,0.00
2013-8-29,93,82,71,79,71,63,98,72,40,30.03,29.85,10,2,10,1.84
2013-8-30,83,77,72,71,66,60,86,69,53,29.94,29.85,8,2,10,0.00
2013-8-31,88,76,66,69,64,61,88,69,44,29.94,29.76,8,1,8,0.00
2013-9-1,72,69,63,65,58,51,83,69,56,30.03,29.79,7,2,8,0.00
2013-9-2,66,61,56,52,50,49,80,69,56,30.15,30.03,7,1,8,0.00
2013-9-3,77,64,54,56,53,50,92,69,42,30.15,30.03,6,1,6,0.00
2013-9-4,86,72,62,66,59,54,89,66,43,30.18,30.03,6,1,8,0.00
2013-9-5,84,72,63,65,57,50,76,58,40,30.24,30.12,8,2,8,0.00
2013-9-6,91,80,70,69,64,55,92,62,30,30.12,29.91,10,3,10,0.00
2013-9-7,93,80,72,71,64,59,83,61,38,30.03,29.91,10,2,10,0.00
2013-9-8,75,70,66,64,58,53,79,66,57,30.06,29.91,8,2,9,0.00
2013-9-9,90,78,70,74,68,64,94,73,45,29.91,29.65,9,2,11,0.00
2013-9-10,78,74,70,72,64,58,86,72,59,30.03,29.76,6,1,6,0.00
2013-9-11,86,74,66,65,55,45,86,55,30,30.09,30.03,8,1,9,0.00
2013-9-12,70,66,63,48,46,45,58,49,41,30.15,30.09,5,2,7,0.00
2013-9-14,68,60,56,56,53,47,97,79,48,30.00,29.94,6,1,6,0.24
2013-9-15,64,58,52,58,54,44,98,87,69,30.30,29.91,8,2,9,0.21
2013-9-16,68,56,45,47,40,31,87,58,28,30.39,30.27,6,2,9,0.00
2013-9-17,69,58,50,59,49,38,98,72,52,30.27,29.97,11,4,15,0.04
2013-9-18,72,67,59,70,65,59,98,95,89,29.97,29.76,12,2,12,0.21
2013-9-19,76,71,66,72,67,60,98,89,71,29.82,29.71,8,2,9,0.21
2013-9-20,66,60,52,60,52,45,87,76,51,29.94,29.79,8,2,8,0.00
2013-9-21,62,55,49,49,46,43,92,74,52,30.00,29.91,5,1,6,0.00
2013-9-22,71,60,49,53,48,43,84,67,47,30.00,29.91,13,2,13,0.00
2013-9-23,73,64,55,52,49,47,80,60,41,30.00,29.91,14,3,14,0.00
2013-9-24,77,65,55,53,49,47,81,59,39,30.00,29.97,7,2,9,0.00
2013-9-25,75,64,55,55,50,46,88,62,41,30.00,29.91,8,2,10,0.00
2013-9-26,81,69,58,59,54,50,76,60,42,29.94,29.85,14,4,14,0.00
2013-9-27,83,74,66,63,59,56,74,61,40,29.94,29.82,16,4,16,0.00
2013-9-28,73,63,52,65,54,46,94,75,57,29.97,29.68,11,3,13,0.12
2013-9-29,76,62,48,48,44,40,84,55,29,29.97,29.82,14,3,14,0.00
2013-9-30,78,68,59,50,46,42,60,46,33,29.82,29.65,10,4,13,0.00
2013-10-1,76,68,57,51,41,31,60,39,22,30.00,29.65,10,2,10,0.00
2013-10-2,75,62,50,56,41,34,97,51,24,30.06,29.85,10,2,14,0.25
2013-10-3,60,58,56,59,57,55,98,97,94,29.94,29.85,8,2,9,0.00
2013-10-4,58,57,55,57,56,54,98,96,90,30.00,29.85,11,3,13,0.08
2013-10-5,60,56,47,60,53,45,98,92,81,29.91,29.74,8,1,10,0.17
2013-10-6,54,48,43,52,47,42,98,96,90,29.85,29.71,9,1,9,0.00
2013-10-7,65,54,44,52,44,39,98,75,42,30.00,29.82,5,1,6,0.00
2013-10-8,76,64,52,46,42,40,71,48,31,30.00,29.85,12,4,22,0.00
2013-10-9,76,66,58,50,46,43,68,49,34,30.06,29.94,10,4,11,0.00
2013-10-10,78,65,54,51,46,43,69,52,32,30.06,29.91,10,3,12,0.00
2013-10-11,74,68,59,59,52,49,84,58,44,29.91,29.68,13,5,15,0.04
2013-10-12,61,52,47,57,43,38,85,70,55,30.15,29.74,7,2,11,0.00
2013-10-13,62,50,42,42,36,31,85,60,36,30.41,30.15,5,1,6,0.00
2013-10-14,55,50,44,47,37,34,89,62,45,30.39,29.97,11,2,11,0.00
2013-10-15,54,50,47,53,49,46,98,98,89,29.97,29.71,8,2,10,0.00
2013-10-16,47,44,42,46,41,38,98,90,77,29.91,29.85,9,1,9,0.00
2013-10-17,59,47,41,46,40,36,98,78,46,29.88,29.76,6,1,8,0.00
2013-10-18,53,44,39,43,36,27,98,74,41,29.97,29.85,9,2,9,0.00
2013-10-19,46,40,36,40,36,32,91,83,70,29.85,29.68,6,1,6,0.00
2013-10-20,44,38,34,41,35,31,98,90,84,29.88,29.62,7,2,10,0.00
2013-10-21,38,35,32,33,22,18,83,59,49,29.97,29.88,8,2,8,0.00
2013-10-22,39,35,29,32,27,22,85,74,61,30.03,29.94,7,1,7,0.00
2013-10-23,38,35,34,32,24,17,88,65,50,30.09,30.00,8,2,8,0.00
2013-10-24,44,38,33,30,24,18,73,57,48,30.30,30.09,10,2,10,0.00
2013-10-25,57,45,31,40,32,25,81,60,44,30.30,29.79,11,2,13,0.00
2013-10-26,52,44,37,39,27,0,65,52,43,30.12,29.79,11,3,12,0.00
2013-10-27,57,44,32,32,28,24,75,54,37,30.15,29.85,8,2,9,0.00
2013-10-28,46,38,33,27,21,16,68,51,38,30.41,30.15,11,2,12,0.00
2013-10-29,41,38,32,35,25,18,82,61,52,30.39,30.12,9,2,9,0.00
2013-10-30,50,45,40,50,44,35,98,96,82,30.12,29.71,5,1,7,0.04
2013-10-31,50,44,40,50,43,38,98,97,91,29.71,29.44,7,1,7,0.00
2013-11-1,51,43,38,40,36,30,97,77,51,29.88,29.44,8,2,8,0.00
2013-11-2,50,41,34,35,29,26,80,65,43,30.12,29.88,8,1,8,0.00
2013-11-3,55,46,37,32,29,26,74,54,38,30.12,29.91,20,4,20,0.00
2013-11-4,49,45,37,46,36,30,97,74,48,30.15,29.85,13,3,15,0.04
2013-11-5,45,37,32,37,31,25,97,81,51,30.24,30.03,7,1,8,0.00
2013-11-6,38,34,31,33,28,22,98,78,55,30.18,30.03,6,1,7,0.00
2013-11-7,36,31,27,30,27,23,94,85,76,30.21,30.15,5,1,6,0.00
2013-11-8,45,36,26,38,27,23,94,73,49,30.18,29.65,12,2,14,0.00
2013-11-9,45,41,37,39,30,22,83,66,50,30.21,29.68,14,4,19,0.00
2013-11-10,46,38,33,29,26,22,69,60,47,30.33,30.12,10,2,10,0.00
2013-11-11,39,25,16,29,10,4,73,52,42,30.68,30.12,10,3,13,0.00
2013-11-12,28,21,13,9,6,2,63,52,41,30.71,30.41,6,2,8,0.00
2013-11-13,48,36,22,30,20,9,60,52,40,30.44,29.91,13,3,14,0.00
2013-11-14,39,36,35,30,27,25,78,68,60,29.91,29.88,4,1,5,0.00
2013-11-15,56,44,31,39,34,28,91,70,45,29.91,29.71,10,2,11,0.00
2013-11-16,49,45,42,48,42,32,98,90,64,29.74,29.29,9,2,11,0.04
2013-11-17,44,40,33,44,35,22,98,83,63,29.82,29.35,15,3,15,0.00
2013-11-18,34,30,25,23,17,15,68,59,50,30.27,29.82,13,3,13,0.00
2013-11-19,46,36,24,27,22,16,78,59,44,30.27,29.94,15,4,15,0.00
2013-11-20,44,41,37,34,27,21,88,58,42,30.06,29.91,13,4,13,0.00
2013-11-21,38,32,25,37,27,12,97,82,51,30.47,30.03,10,2,12,0.00
2013-11-22,32,23,14,13,9,-1,68,54,35,30.59,30.41,11,2,16,0.00
2013-11-23,17,12,7,0,-4,-7,53,48,41,30.77,30.59,9,2,10,0.00
2013-11-24,30,20,10,12,3,-7,54,46,42,30.65,30.00,16,4,16,0.00
2013-11-25,38,33,28,26,19,12,71,56,50,30.12,29.91,13,3,14,0.00
2013-11-26,30,21,14,16,4,-1,58,47,42,30.36,30.12,12,4,13,0.00
2013-11-27,24,18,10,7,2,-4,63,50,44,30.36,30.09,8,2,8,0.00
2013-11-28,28,22,15,11,7,4,59,51,45,30.50,30.09,11,2,11,0.00
2013-11-29,33,24,14,18,11,3,68,58,45,30.50,30.15,0,0,0,0.00
2013-11-30,39,32,25,25,21,16,77,63,52,30.21,30.06,0,0,0,0.00
2013-12-1,35,28,21,25,20,16,80,71,59,30.24,30.06,0,0,0,0.00
2013-12-2,35,34,34,34,34,33,98,98,98,31.83,28.73,10,3,10,0.09
2013-12-3,35,34,32,34,34,31,98,98,98,31.98,31.80,8,1,9,0.08
2013-12-4,32,28,16,32,27,9,98,95,75,31.98,31.65,11,2,16,0.00
2013-12-5,15,7,1,9,1,-5,77,76,75,32.45,31.89,13,3,13,0.00
2013-12-6,7,0,-6,1,-6,-12,76,76,76,32.75,32.45,8,3,10,0.00
2013-12-7,5,-3,-9,-1,-9,-15,76,76,76,32.84,32.69,6,1,7,0.00
2013-12-8,13,7,-1,7,1,-7,76,76,76,32.69,32.19,6,1,7,0.00
2013-12-9,11,5,-2,5,0,-8,76,76,76,32.27,32.07,11,2,13,0.00
2013-12-10,12,7,1,5,1,-5,76,76,76,32.42,31.95,10,2,11,0.00
2013-12-11,4,0,-3,-1,-6,-9,76,76,76,32.54,32.42,8,3,10,0.00
2013-12-12,21,16,10,8,6,3,76,63,53,32.48,32.33,4,1,5,0.00
2013-12-13,19,14,11,8,4,-1,73,63,56,32.48,32.33,10,3,10,0.00
2013-12-14,17,10,1,6,0,-9,68,61,58,32.48,32.27,10,2,13,0.00
2013-12-15,5,1,-1,-5,-9,-11,62,62,62,32.36,30.12,6,2,11,0.00
2013-12-16,20,9,1,18,1,-9,90,69,62,30.15,29.97,6,2,6,0.00
2013-12-17,31,23,11,28,14,0,96,68,53,30.12,29.91,12,4,15,0.00
2013-12-18,34,24,10,25,15,0,83,68,57,30.09,29.74,8,2,10,0.00
2013-12-19,27,19,16,20,10,4,80,69,55,30.12,29.85,8,3,10,0.00
2013-12-20,20,17,14,12,10,9,81,75,65,30.06,29.88,6,2,8,0.00
2013-12-21,24,20,16,14,12,10,76,72,62,30.03,29.91,8,2,8,0.00
2013-12-22,21,16,8,15,9,1,83,75,67,30.24,30.00,10,2,10,0.00
2013-12-23,8,1,-4,1,-6,-10,73,73,73,30.50,30.24,8,3,10,0.00
2013-12-24,10,1,-11,3,-5,-17,73,73,73,30.47,30.15,9,2,9,0.00
2013-12-25,27,16,9,20,9,2,83,73,61,30.18,30.06,9,2,10,0.00
2013-12-26,28,20,13,20,14,6,86,77,70,30.21,30.12,4,1,5,0.00
2013-12-27,40,28,16,29,24,13,97,83,58,30.21,29.94,7,1,8,0.08
2013-12-28,45,32,22,32,27,17,98,85,55,30.00,29.71,14,2,17,0.17
2013-12-29,22,1,-10,18,-7,-17,84,69,69,30.30,30.00,12,3,12,0.00
2013-12-30,3,-3,-10,-5,-11,-18,69,69,69,30.27,30.18,5,1,5,0.00
2013-12-31,1,-4,-9,-7,-12,-16,69,69,69,30.41,30.21,7,2,7,0.00
2014-1-1,3,-3,-8,-5,-10,-16,69,69,69,30.47,30.41,7,2,8,0.00
2014-1-2,6,-3,-10,-2,-11,-18,69,69,69,30.50,30.39,6,2,7,0.00